Herbert C Jackson — WL3972 — position and weather

sailwx.info

Track history (hours):
 
Tides and Currents Weather Stations Pressure Air Temp Water Temp Dewpoint Dewpoint Depression Visibility Wind Speed Wind Dir Waves Ship Positions

Herbert C Jackson

More information available from US FCC via Universal Licensing System and Coast Guard Vessel Documentation Center.

Last reported at 2014-Aug-01 01:33 UTC. Time now 2014-Aug-01 01:43 UTC.
Position N 46°33' W 084°38'.

Length 239 m; draft 6.2 m.

Type: Cargo ship. MMSI: 366904930.

Date/timePositionNaut miles runAvg speedWind from/ knotsBaromVisibWave heightAir tempDewpointWater temp
2014-Aug-01 01:33N 46°33' W 084°38'611.2
2014-Aug-01 01:00N 46°30' W 084°30'4 4.1 260 / 81014.2 15.0 13.2
2014-Aug-01 00:00N 46°30' W 084°24'10 5.1 270 / 61014.2 17.6 13.7
2014-Jul-31 22:00N 46°24' W 084°12'7 7.3 260 / 141013.3 19.2 13.7
2014-Jul-31 21:00N 46°18' W 084°06'5 9.1 260 / 131013.3 18.4 13.9
2014-Jul-31 20:23N 46°13' W 084°07'1 2.5
2014-Jul-31 20:00N 46°12' W 084°06'1514.6 290 / 171012.3 18.3 14.7
2014-Jul-31 19:00N 46°00' W 083°54'510.5 230 / 191012.0 19.6 14.8
2014-Jul-31 18:33N 45°55' W 083°53'3312.7
2014-Jul-31 16:00N 45°30' W 083°24'2713.6 260 / 101013.3 16.1 14.3
2014-Jul-31 14:00N 45°06' W 083°06'1312.7 230 / 151013.7 16.3 14.6
2014-Jul-31 13:00N 44°54' W 083°00'3812.7 220 / 141014.0 15.1 13.1
2014-Jul-31 10:00N 44°18' W 082°42'6713.5 200 / 81014.0 15.8 14.3
2014-Jul-31 05:00N 43°12' W 082°24'1212.0 200 / 111014.3 18.1 17.3
2014-Jul-31 04:00N 43°00' W 082°24'19 9.3 200 / 61014.7 17.6 17.8
2014-Jul-31 02:00N 42°42' W 082°30'39 6.5 280 / 31015.4 17.6 17.8
2014-Jul-30 20:00N 42°18' W 083°12'0 0.0 320 / 71014.5 23.5 24.3
2014-Jul-30 19:00N 42°18' W 083°12'0 0.0 310 / 51014.8 23.4 24.5
2014-Jul-30 18:00N 42°18' W 083°12'0 0.0 270 / 81015.2 21.8 24.2
2014-Jul-30 17:00N 42°18' W 083°12'0 0.0 220 / 71015.9 21.4 22.3
2014-Jul-30 16:00N 42°18' W 083°12'15 4.9 310 / 41016.2 20.9 22.6
2014-Jul-30 13:00N 42°24' W 082°54'1110.7 270 / 61015.5 17.0 18.5
2014-Jul-30 12:00N 42°30' W 082°42'7 7.5 280 / 81015.2 16.6 17.5
2014-Jul-30 11:00N 42°36' W 082°36'7 7.4 250 / 21015.0 15.6 17.4
2014-Jul-30 10:00N 42°42' W 082°30'2412.2 270 / 31014.7 14.8 17.4
2014-Jul-30 08:00N 43°06' W 082°24'6 6.0 260 / 121013.3 15.6 17.2
2014-Jul-30 07:00N 43°12' W 082°24'3015.2 280 / 141013.3 16.4 16.7
2014-Jul-30 05:00N 43°42' W 082°30'1212.0 260 / 141013.0 17.0 16.2
2014-Jul-30 04:00N 43°54' W 082°30'1312.8 280 / 111013.3 17.1 16.8
2014-Jul-30 03:00N 44°06' W 082°36'1212.0 070 / 61013.0 16.8 14.8
2014-Jul-30 02:00N 44°18' W 082°36'1312.7 070 / 91013.3 16.0 13.8
2014-Jul-30 01:00N 44°30' W 082°42'4511.3 120 / 91013.0 15.8 13.9
2014-Jul-29 21:00N 45°12' W 083°06'3913.1 300 / 41012.3 15.5 12.9
2014-Jul-29 18:00N 45°42' W 083°42'1312.7 320 / 71013.0 14.7 13.5
2014-Jul-29 17:00N 45°54' W 083°48'1514.6 230 / 41013.0 14.2 13.1
2014-Jul-29 16:00N 46°06' W 084°00'7 7.3 350 / 101013.3 14.5 13.5
2014-Jul-29 15:00N 46°12' W 084°06'22 5.5 010 / 91013.3 13.5 13.8
2014-Jul-29 11:00N 46°30' W 084°24'4 4.1 280 / 51013.2 10.4 13.4
2014-Jul-29 10:00N 46°30' W 084°30'1010.2 320 / 91012.9 10.2 13.1
2014-Jul-29 09:00N 46°36' W 084°42'1010.2 330 / 91012.9 10.6 12.8
2014-Jul-29 08:00N 46°42' W 084°54'1514.5 290 / 101012.5 9.3 10.9
2014-Jul-29 07:00N 46°54' W 085°06'2512.7 270 / 81013.2 6.7 6.3
2014-Jul-29 05:00N 46°48' W 085°42'1212.3 300 / 101013.9 6.1 4.2
2014-Jul-29 04:00N 46°48' W 086°00'1413.7 290 / 121014.6 7.1 4.1
2014-Jul-29 03:00N 46°42' W 086°18'1212.3 290 / 121015.2 8.4 6.0
2014-Jul-29 02:00N 46°42' W 086°36'1817.5 310 / 141015.2 10.2 7.0
2014-Jul-29 01:00N 46°36' W 087°00'1212.4 290 / 111015.6 13.5 8.6
2014-Jul-29 00:00N 46°36' W 087°18'4 4.1 320 / 11015.9 16.9 9.8
2014-Jul-28 23:00N 46°36' W 087°24'0 0.0 320 / 21016.3 19.0 12.8
2014-Jul-28 22:00N 46°36' W 087°24'0 0.0 090 / 11016.6 17.0 12.8
2014-Jul-28 21:00N 46°36' W 087°24'0 0.0 120 / 31016.6 16.9 13.0
2014-Jul-28 20:00N 46°36' W 087°24'0 0.0 320 / 61017.3 17.7 12.9
2014-Jul-28 19:00N 46°36' W 087°24'0 0.0 300 / 61017.6 16.5 12.8
2014-Jul-28 17:00N 46°36' W 087°24'0 0.0 120 / 41017.9 15.0 13.3
2014-Jul-28 15:00N 46°36' W 087°24'116 6.1 130 / 51018.3 14.5 12.8
2014-Jul-27 20:00N 46°30' W 084°36'8 8.3 350 / 201005.8 16.8 13.6
2014-Jul-27 19:00N 46°30' W 084°24'4 2.1 090 / 81006.8 20.4 13.3
2014-Jul-27 17:00N 46°30' W 084°18'20 9.9 050 / 61006.2 19.0 13.4
2014-Jul-27 15:00N 46°12' W 084°06'511.2 270 / 21005.2 16.2 14.2
2014-Jul-27 14:30N 46°08' W 084°01'2 3.8
2014-Jul-27 14:00N 46°06' W 084°00'915.6 220 / 31005.2 16.5 15.0
2014-Jul-27 13:23N 45°58' W 083°53'1112.8
2014-Jul-27 12:31N 45°48' W 083°46'1712.8
2014-Jul-27 11:10N 45°33' W 083°32'1411.7
2014-Jul-27 10:00N 45°24' W 083°18'1312.7 290 / 141004.9 16.7 14.4
2014-Jul-27 09:00N 45°12' W 083°12'1312.7 310 / 91005.2 17.2 15.4
2014-Jul-27 08:00N 45°00' W 083°06'1312.7 260 / 171005.2 17.5 13.9
2014-Jul-27 07:00N 44°48' W 083°00'1312.7 240 / 171005.5 17.4 14.8
2014-Jul-27 06:00N 44°36' W 082°54'2512.7 270 / 141005.5 18.4 15.5
2014-Jul-27 04:00N 44°12' W 082°42'3115.6 250 / 271005.5 21.4 17.3
2014-Jul-27 02:00N 43°42' W 082°30'1212.0 230 / 141007.2 22.9 17.6
2014-Jul-27 01:00N 43°30' W 082°30'1312.8 220 / 131007.2 21.6 17.5
2014-Jul-27 00:00N 43°18' W 082°24'1212.0 200 / 111007.6 22.9 18.2
2014-Jul-26 23:00N 43°06' W 082°24'57 9.5 200 / 141008.3 25.0 18.3
2014-Jul-26 17:00N 42°18' W 083°06'0 0.0 180 / 101011.1 23.5 21.1
2014-Jul-26 16:00N 42°18' W 083°06'4 2.2 140 / 41012.1 24.5 24.2
2014-Jul-26 14:00N 42°18' W 083°12'4 0.9 180 / 51012.8 22.1 22.8
2014-Jul-26 09:00N 42°18' W 083°06'4 4.4 210 / 51013.5 19.1 20.2
2014-Jul-26 08:00N 42°18' W 083°00'2110.7 190 / 61013.8 19.2 19.2
2014-Jul-26 06:00N 42°30' W 082°36'19 9.3 200 / 141014.2 20.5 18.1
2014-Jul-26 04:00N 42°48' W 082°30'1312.8 190 / 61014.7 20.6 18.1
2014-Jul-26 03:00N 43°00' W 082°24'2412.0 190 / 91013.7 21.1 18.0
2014-Jul-26 01:00N 43°24' W 082°24'2412.2 170 / 111013.7 20.9 17.0
2014-Jul-25 23:00N 43°48' W 082°30'1212.0 180 / 81013.7 21.6 17.6
2014-Jul-25 22:00N 44°00' W 082°30'1312.8 140 / 121013.3 20.3 17.3
2014-Jul-25 21:00N 44°12' W 082°36'2512.7 140 / 71014.0 19.9 15.2
2014-Jul-25 19:00N 44°36' W 082°48'5213.1 190 / 181013.010.8 1.018.3 14.7
2014-Jul-25 15:00N 45°24' W 083°18'7 7.3 160 / 91014.7 17.1 12.8
2014-Jul-25 14:00N 45°30' W 083°24'1020.5 200 / 91015.4 15.7 13.9
2014-Jul-25 13:31N 45°37' W 083°33'5 9.7
2014-Jul-25 13:00N 45°42' W 083°36'817.6 200 / 101015.7 15.7 14.1
2014-Jul-25 12:33N 45°47' W 083°44'1312.7
2014-Jul-25 11:33N 45°58' W 083°54'2 3.4
2014-Jul-25 11:00N 46°00' W 083°54'919.0 180 / 111014.0 14.9 13.5
2014-Jul-25 10:31N 46°08' W 084°01'610.7
2014-Jul-25 10:00N 46°12' W 084°06'4 8.6 150 / 81014.7 13.9 14.2
2014-Jul-25 09:33N 46°14' W 084°11'4 7.2
2014-Jul-25 09:00N 46°18' W 084°12'5 7.8 120 / 61015.0 10.4 13.2
2014-Jul-25 08:24N 46°23' W 084°13'3 8.4
2014-Jul-25 08:00N 46°24' W 084°18'610.5 130 / 21015.4 10.9 13.0
2014-Jul-25 07:27N 46°30' W 084°19'1 1.2
2014-Jul-25 07:00N 46°30' W 084°18'4 4.1 120 / 21015.4 11.7 13.1
2014-Jul-25 06:00N 46°30' W 084°24'0 0.5 120 / 11016.3 12.1 12.7
2014-Jul-25 05:33N 46°30' W 084°24'7 7.4
2014-Jul-25 04:33N 46°28' W 084°34'610.3
2014-Jul-25 04:00N 46°30' W 084°42'817.6 200 / 41015.9 15.4 12.2
2014-Jul-25 03:33N 46°37' W 084°46'5 8.9
2014-Jul-25 03:00N 46°42' W 084°48'818.4 120 / 101015.6 13.7 9.6
2014-Jul-25 02:33N 46°48' W 084°56'1912.3
2014-Jul-25 01:00N 46°48' W 085°24'1212.3 110 / 81015.2 12.2 4.3
2014-Jul-25 00:00N 46°48' W 085°42'1212.3 360 / 41016.3 14.8 4.0
2014-Jul-24 23:00N 46°48' W 086°00'1413.7 130 / 11016.6 13.6 4.2
2014-Jul-24 22:00N 46°42' W 086°18'2512.7 040 / 41016.6 14.0 4.2
2014-Jul-24 20:00N 46°36' W 086°54'1212.4 020 / 111017.6 16.3 6.8
2014-Jul-24 19:00N 46°36' W 087°12'8 8.2 030 / 121017.9 17.0 8.6
2014-Jul-24 18:00N 46°36' W 087°24'0 0.0 290 / 11019.6 20.6 10.1
2014-Jul-24 17:00N 46°36' W 087°24'0 0.0 280 / 11020.0 19.5 10.4
2014-Jul-24 16:00N 46°36' W 087°24'0 0.0 140 / 11020.0 18.7 10.8
2014-Jul-24 14:00N 46°36' W 087°24'0 0.0 320 / 11021.0 19.0 10.3
2014-Jul-24 11:00N 46°36' W 087°24'0 0.0 240 / 41021.0 14.1 10.1
2014-Jul-24 10:00N 46°36' W 087°24'0 0.0 260 / 21020.7 13.1 10.0
2014-Jul-24 09:00N 46°36' W 087°24'1212.4 260 / 61020.7 13.1 10.2
2014-Jul-24 08:00N 46°36' W 087°06'3812.5 210 / 121020.0 12.2 9.1
2014-Jul-24 05:00N 46°42' W 086°12'2914.7 220 / 111020.3 11.8 4.8
2014-Jul-24 03:00N 46°48' W 085°30'3511.7 300 / 111019.6 5.9 3.9
2014-Jul-24 00:00N 46°36' W 084°42'14 6.9 300 / 261018.6 12.5 13.2
2014-Jul-23 22:00N 46°30' W 084°24'17 5.8 320 / 191020.0 16.7 13.8
2014-Jul-23 19:00N 46°18' W 084°06'6 9.8 310 / 161019.1 19.1 14.0
2014-Jul-23 18:26N 46°13' W 084°07'1610.8
2014-Jul-23 17:00N 46°00' W 083°54'511.6 350 / 101018.8 17.4 15.2
2014-Jul-23 16:31N 45°55' W 083°52'713.8
2014-Jul-23 16:00N 45°48' W 083°48'2512.3 350 / 161017.7 15.7 13.3
2014-Jul-23 14:00N 45°30' W 083°24'1312.7 320 / 201016.7 14.9 12.3
2014-Jul-23 13:00N 45°18' W 083°18'6513.0 300 / 211016.7 14.5 13.0
2014-Jul-23 08:00N 44°18' W 082°42'1212.0 320 / 341010.3 17.4 15.4
2014-Jul-23 07:00N 44°06' W 082°42'1312.8 320 / 261010.6 19.7 18.2
2014-Jul-23 06:00N 43°54' W 082°36'2412.2 350 / 151011.0 20.6 18.5
2014-Jul-23 04:00N 43°30' W 082°30'3015.2 240 / 131012.3 26.5 18.1
2014-Jul-23 02:00N 43°00' W 082°24'19 9.3 220 / 121012.7 27.2 18.5
2014-Jul-23 00:00N 42°42' W 082°30'6 6.0 190 / 131013.3 28.2 18.1
2014-Jul-22 23:00N 42°36' W 082°30'1110.7 190 / 101013.7 28.7 18.1
2014-Jul-22 22:00N 42°30' W 082°42'1110.7 190 / 141013.8 25.7 19.0
2014-Jul-22 21:00N 42°24' W 082°54'1110.7 220 / 141014.5 30.2 20.8
2014-Jul-22 20:00N 42°18' W 083°06'0 0.0 170 / 151015.5 29.0 21.3
2014-Jul-22 19:00N 42°18' W 083°06'4 1.5 150 / 91015.2 30.0 25.5
2014-Jul-22 16:00N 42°18' W 083°12'0 0.0 250 / 71017.5 29.0 23.7
2014-Jul-22 15:00N 42°18' W 083°12'0 0.0 180 / 51018.2 27.7 23.3
2014-Jul-22 14:00N 42°18' W 083°12'0 0.0 190 / 51019.2 26.2 23.1
2014-Jul-22 13:00N 42°18' W 083°12'9 4.4 280 / 61020.3 24.3 22.9
2014-Jul-22 11:00N 42°18' W 083°00'1110.7 200 / 41019.6 20.8 20.1
2014-Jul-22 10:00N 42°24' W 082°48'1110.7 160 / 51019.6 21.6 18.9
2014-Jul-22 09:00N 42°30' W 082°36'37 9.3 150 / 21019.6 18.4 17.6
2014-Jul-22 05:00N 43°06' W 082°24'1818.0 190 / 81019.110.8 21.9 17.5
2014-Jul-22 04:00N 43°24' W 082°24'1212.0 150 / 101019.1 21.7 17.4
2014-Jul-22 03:00N 43°36' W 082°24'1312.8 160 / 131018.8 21.6 16.9
2014-Jul-22 02:00N 43°48' W 082°30'   170 / 121018.8 21.3 16.8
Track history (hours):
 
Tides and Currents Weather Stations Pressure Air Temp Water Temp Dewpoint Dewpoint Depression Visibility Wind Speed Wind Dir Waves Ship Positions

Herbert C Jackson

More information available from US FCC via Universal Licensing System and Coast Guard Vessel Documentation Center.

Last reported at 2014-Aug-01 01:33 UTC. Time now 2014-Aug-01 01:43 UTC.
Position N 46°33' W 084°38'.

Length 239 m; draft 6.2 m.

Type: Cargo ship. MMSI: 366904930.

Date/timePositionNaut miles runAvg speedWind from/ knotsBaromVisibWave heightAir tempDewpointWater temp
2014-Aug-01 01:33N 46°33' W 084°38'611.2
2014-Aug-01 01:00N 46°30' W 084°30'4 4.1 260 / 81014.2 15.0 13.2
2014-Aug-01 00:00N 46°30' W 084°24'10 5.1 270 / 61014.2 17.6 13.7
2014-Jul-31 22:00N 46°24' W 084°12'7 7.3 260 / 141013.3 19.2 13.7
2014-Jul-31 21:00N 46°18' W 084°06'5 9.1 260 / 131013.3 18.4 13.9
2014-Jul-31 20:23N 46°13' W 084°07'1 2.5
2014-Jul-31 20:00N 46°12' W 084°06'1514.6 290 / 171012.3 18.3 14.7
2014-Jul-31 19:00N 46°00' W 083°54'510.5 230 / 191012.0 19.6 14.8
2014-Jul-31 18:33N 45°55' W 083°53'3312.7
2014-Jul-31 16:00N 45°30' W 083°24'2713.6 260 / 101013.3 16.1 14.3
2014-Jul-31 14:00N 45°06' W 083°06'1312.7 230 / 151013.7 16.3 14.6
2014-Jul-31 13:00N 44°54' W 083°00'3812.7 220 / 141014.0 15.1 13.1
2014-Jul-31 10:00N 44°18' W 082°42'6713.5 200 / 81014.0 15.8 14.3
2014-Jul-31 05:00N 43°12' W 082°24'1212.0 200 / 111014.3 18.1 17.3
2014-Jul-31 04:00N 43°00' W 082°24'19 9.3 200 / 61014.7 17.6 17.8
2014-Jul-31 02:00N 42°42' W 082°30'39 6.5 280 / 31015.4 17.6 17.8
2014-Jul-30 20:00N 42°18' W 083°12'0 0.0 320 / 71014.5 23.5 24.3
2014-Jul-30 19:00N 42°18' W 083°12'0 0.0 310 / 51014.8 23.4 24.5
2014-Jul-30 18:00N 42°18' W 083°12'0 0.0 270 / 81015.2 21.8 24.2
2014-Jul-30 17:00N 42°18' W 083°12'0 0.0 220 / 71015.9 21.4 22.3
2014-Jul-30 16:00N 42°18' W 083°12'15 4.9 310 / 41016.2 20.9 22.6
2014-Jul-30 13:00N 42°24' W 082°54'1110.7 270 / 61015.5 17.0 18.5
2014-Jul-30 12:00N 42°30' W 082°42'7 7.5 280 / 81015.2 16.6 17.5
2014-Jul-30 11:00N 42°36' W 082°36'7 7.4 250 / 21015.0 15.6 17.4
2014-Jul-30 10:00N 42°42' W 082°30'2412.2 270 / 31014.7 14.8 17.4
2014-Jul-30 08:00N 43°06' W 082°24'6 6.0 260 / 121013.3 15.6 17.2
2014-Jul-30 07:00N 43°12' W 082°24'3015.2 280 / 141013.3 16.4 16.7
2014-Jul-30 05:00N 43°42' W 082°30'1212.0 260 / 141013.0 17.0 16.2
2014-Jul-30 04:00N 43°54' W 082°30'1312.8 280 / 111013.3 17.1 16.8
2014-Jul-30 03:00N 44°06' W 082°36'1212.0 070 / 61013.0 16.8 14.8
2014-Jul-30 02:00N 44°18' W 082°36'1312.7 070 / 91013.3 16.0 13.8
2014-Jul-30 01:00N 44°30' W 082°42'4511.3 120 / 91013.0 15.8 13.9
2014-Jul-29 21:00N 45°12' W 083°06'3913.1 300 / 41012.3 15.5 12.9
2014-Jul-29 18:00N 45°42' W 083°42'1312.7 320 / 71013.0 14.7 13.5
2014-Jul-29 17:00N 45°54' W 083°48'1514.6 230 / 41013.0 14.2 13.1
2014-Jul-29 16:00N 46°06' W 084°00'7 7.3 350 / 101013.3 14.5 13.5
2014-Jul-29 15:00N 46°12' W 084°06'22 5.5 010 / 91013.3 13.5 13.8
2014-Jul-29 11:00N 46°30' W 084°24'4 4.1 280 / 51013.2 10.4 13.4
2014-Jul-29 10:00N 46°30' W 084°30'1010.2 320 / 91012.9 10.2 13.1
2014-Jul-29 09:00N 46°36' W 084°42'1010.2 330 / 91012.9 10.6 12.8
2014-Jul-29 08:00N 46°42' W 084°54'1514.5 290 / 101012.5 9.3 10.9
2014-Jul-29 07:00N 46°54' W 085°06'2512.7 270 / 81013.2 6.7 6.3
2014-Jul-29 05:00N 46°48' W 085°42'1212.3 300 / 101013.9 6.1 4.2
2014-Jul-29 04:00N 46°48' W 086°00'1413.7 290 / 121014.6 7.1 4.1
2014-Jul-29 03:00N 46°42' W 086°18'1212.3 290 / 121015.2 8.4 6.0
2014-Jul-29 02:00N 46°42' W 086°36'1817.5 310 / 141015.2 10.2 7.0
2014-Jul-29 01:00N 46°36' W 087°00'1212.4 290 / 111015.6 13.5 8.6
2014-Jul-29 00:00N 46°36' W 087°18'4 4.1 320 / 11015.9 16.9 9.8
2014-Jul-28 23:00N 46°36' W 087°24'0 0.0 320 / 21016.3 19.0 12.8
2014-Jul-28 22:00N 46°36' W 087°24'0 0.0 090 / 11016.6 17.0 12.8
2014-Jul-28 21:00N 46°36' W 087°24'0 0.0 120 / 31016.6 16.9 13.0
2014-Jul-28 20:00N 46°36' W 087°24'0 0.0 320 / 61017.3 17.7 12.9
2014-Jul-28 19:00N 46°36' W 087°24'0 0.0 300 / 61017.6 16.5 12.8
2014-Jul-28 17:00N 46°36' W 087°24'0 0.0 120 / 41017.9 15.0 13.3
2014-Jul-28 15:00N 46°36' W 087°24'116 6.1 130 / 51018.3 14.5 12.8
2014-Jul-27 20:00N 46°30' W 084°36'8 8.3 350 / 201005.8 16.8 13.6
2014-Jul-27 19:00N 46°30' W 084°24'4 2.1 090 / 81006.8 20.4 13.3
2014-Jul-27 17:00N 46°30' W 084°18'20 9.9 050 / 61006.2 19.0 13.4
2014-Jul-27 15:00N 46°12' W 084°06'511.2 270 / 21005.2 16.2 14.2
2014-Jul-27 14:30N 46°08' W 084°01'2 3.8
2014-Jul-27 14:00N 46°06' W 084°00'915.6 220 / 31005.2 16.5 15.0
2014-Jul-27 13:23N 45°58' W 083°53'1112.8
2014-Jul-27 12:31N 45°48' W 083°46'1712.8
2014-Jul-27 11:10N 45°33' W 083°32'1411.7
2014-Jul-27 10:00N 45°24' W 083°18'1312.7 290 / 141004.9 16.7 14.4
2014-Jul-27 09:00N 45°12' W 083°12'1312.7 310 / 91005.2 17.2 15.4
2014-Jul-27 08:00N 45°00' W 083°06'1312.7 260 / 171005.2 17.5 13.9
2014-Jul-27 07:00N 44°48' W 083°00'1312.7 240 / 171005.5 17.4 14.8
2014-Jul-27 06:00N 44°36' W 082°54'2512.7 270 / 141005.5 18.4 15.5
2014-Jul-27 04:00N 44°12' W 082°42'3115.6 250 / 271005.5 21.4 17.3
2014-Jul-27 02:00N 43°42' W 082°30'1212.0 230 / 141007.2 22.9 17.6
2014-Jul-27 01:00N 43°30' W 082°30'1312.8 220 / 131007.2 21.6 17.5
2014-Jul-27 00:00N 43°18' W 082°24'1212.0 200 / 111007.6 22.9 18.2
2014-Jul-26 23:00N 43°06' W 082°24'57 9.5 200 / 141008.3 25.0 18.3
2014-Jul-26 17:00N 42°18' W 083°06'0 0.0 180 / 101011.1 23.5 21.1
2014-Jul-26 16:00N 42°18' W 083°06'4 2.2 140 / 41012.1 24.5 24.2
2014-Jul-26 14:00N 42°18' W 083°12'4 0.9 180 / 51012.8 22.1 22.8
2014-Jul-26 09:00N 42°18' W 083°06'4 4.4 210 / 51013.5 19.1 20.2
2014-Jul-26 08:00N 42°18' W 083°00'2110.7 190 / 61013.8 19.2 19.2
2014-Jul-26 06:00N 42°30' W 082°36'19 9.3 200 / 141014.2 20.5 18.1
2014-Jul-26 04:00N 42°48' W 082°30'1312.8 190 / 61014.7 20.6 18.1
2014-Jul-26 03:00N 43°00' W 082°24'2412.0 190 / 91013.7 21.1 18.0
2014-Jul-26 01:00N 43°24' W 082°24'2412.2 170 / 111013.7 20.9 17.0
2014-Jul-25 23:00N 43°48' W 082°30'1212.0 180 / 81013.7 21.6 17.6
2014-Jul-25 22:00N 44°00' W 082°30'1312.8 140 / 121013.3 20.3 17.3
2014-Jul-25 21:00N 44°12' W 082°36'2512.7 140 / 71014.0 19.9 15.2
2014-Jul-25 19:00N 44°36' W 082°48'5213.1 190 / 181013.010.8 1.018.3 14.7
2014-Jul-25 15:00N 45°24' W 083°18'7 7.3 160 / 91014.7 17.1 12.8
2014-Jul-25 14:00N 45°30' W 083°24'1020.5 200 / 91015.4 15.7 13.9
2014-Jul-25 13:31N 45°37' W 083°33'5 9.7
2014-Jul-25 13:00N 45°42' W 083°36'817.6 200 / 101015.7 15.7 14.1
2014-Jul-25 12:33N 45°47' W 083°44'1312.7
2014-Jul-25 11:33N 45°58' W 083°54'2 3.4
2014-Jul-25 11:00N 46°00' W 083°54'919.0 180 / 111014.0 14.9 13.5
2014-Jul-25 10:31N 46°08' W 084°01'610.7
2014-Jul-25 10:00N 46°12' W 084°06'4 8.6 150 / 81014.7 13.9 14.2
2014-Jul-25 09:33N 46°14' W 084°11'4 7.2
2014-Jul-25 09:00N 46°18' W 084°12'5 7.8 120 / 61015.0 10.4 13.2
2014-Jul-25 08:24N 46°23' W 084°13'3 8.4
2014-Jul-25 08:00N 46°24' W 084°18'610.5 130 / 21015.4 10.9 13.0
2014-Jul-25 07:27N 46°30' W 084°19'1 1.2
2014-Jul-25 07:00N 46°30' W 084°18'4 4.1 120 / 21015.4 11.7 13.1
2014-Jul-25 06:00N 46°30' W 084°24'0 0.5 120 / 11016.3 12.1 12.7
2014-Jul-25 05:33N 46°30' W 084°24'7 7.4
2014-Jul-25 04:33N 46°28' W 084°34'610.3
2014-Jul-25 04:00N 46°30' W 084°42'817.6 200 / 41015.9 15.4 12.2
2014-Jul-25 03:33N 46°37' W 084°46'5 8.9
2014-Jul-25 03:00N 46°42' W 084°48'818.4 120 / 101015.6 13.7 9.6
2014-Jul-25 02:33N 46°48' W 084°56'1912.3
2014-Jul-25 01:00N 46°48' W 085°24'1212.3 110 / 81015.2 12.2 4.3
2014-Jul-25 00:00N 46°48' W 085°42'1212.3 360 / 41016.3 14.8 4.0
2014-Jul-24 23:00N 46°48' W 086°00'1413.7 130 / 11016.6 13.6 4.2
2014-Jul-24 22:00N 46°42' W 086°18'2512.7 040 / 41016.6 14.0 4.2
2014-Jul-24 20:00N 46°36' W 086°54'1212.4 020 / 111017.6 16.3 6.8
2014-Jul-24 19:00N 46°36' W 087°12'8 8.2 030 / 121017.9 17.0 8.6
2014-Jul-24 18:00N 46°36' W 087°24'0 0.0 290 / 11019.6 20.6 10.1
2014-Jul-24 17:00N 46°36' W 087°24'0 0.0 280 / 11020.0 19.5 10.4
2014-Jul-24 16:00N 46°36' W 087°24'0 0.0 140 / 11020.0 18.7 10.8
2014-Jul-24 14:00N 46°36' W 087°24'0 0.0 320 / 11021.0 19.0 10.3
2014-Jul-24 11:00N 46°36' W 087°24'0 0.0 240 / 41021.0 14.1 10.1
2014-Jul-24 10:00N 46°36' W 087°24'0 0.0 260 / 21020.7 13.1 10.0
2014-Jul-24 09:00N 46°36' W 087°24'1212.4 260 / 61020.7 13.1 10.2
2014-Jul-24 08:00N 46°36' W 087°06'3812.5 210 / 121020.0 12.2 9.1
2014-Jul-24 05:00N 46°42' W 086°12'2914.7 220 / 111020.3 11.8 4.8
2014-Jul-24 03:00N 46°48' W 085°30'3511.7 300 / 111019.6 5.9 3.9
2014-Jul-24 00:00N 46°36' W 084°42'14 6.9 300 / 261018.6 12.5 13.2
2014-Jul-23 22:00N 46°30' W 084°24'17 5.8 320 / 191020.0 16.7 13.8
2014-Jul-23 19:00N 46°18' W 084°06'6 9.8 310 / 161019.1 19.1 14.0
2014-Jul-23 18:26N 46°13' W 084°07'1610.8
2014-Jul-23 17:00N 46°00' W 083°54'511.6 350 / 101018.8 17.4 15.2
2014-Jul-23 16:31N 45°55' W 083°52'713.8
2014-Jul-23 16:00N 45°48' W 083°48'2512.3 350 / 161017.7 15.7 13.3
2014-Jul-23 14:00N 45°30' W 083°24'1312.7 320 / 201016.7 14.9 12.3
2014-Jul-23 13:00N 45°18' W 083°18'6513.0 300 / 211016.7 14.5 13.0
2014-Jul-23 08:00N 44°18' W 082°42'1212.0 320 / 341010.3 17.4 15.4
2014-Jul-23 07:00N 44°06' W 082°42'1312.8 320 / 261010.6 19.7 18.2
2014-Jul-23 06:00N 43°54' W 082°36'2412.2 350 / 151011.0 20.6 18.5
2014-Jul-23 04:00N 43°30' W 082°30'3015.2 240 / 131012.3 26.5 18.1
2014-Jul-23 02:00N 43°00' W 082°24'19 9.3 220 / 121012.7 27.2 18.5
2014-Jul-23 00:00N 42°42' W 082°30'6 6.0 190 / 131013.3 28.2 18.1
2014-Jul-22 23:00N 42°36' W 082°30'1110.7 190 / 101013.7 28.7 18.1
2014-Jul-22 22:00N 42°30' W 082°42'1110.7 190 / 141013.8 25.7 19.0
2014-Jul-22 21:00N 42°24' W 082°54'1110.7 220 / 141014.5 30.2 20.8
2014-Jul-22 20:00N 42°18' W 083°06'0 0.0 170 / 151015.5 29.0 21.3
2014-Jul-22 19:00N 42°18' W 083°06'4 1.5 150 / 91015.2 30.0 25.5
2014-Jul-22 16:00N 42°18' W 083°12'0 0.0 250 / 71017.5 29.0 23.7
2014-Jul-22 15:00N 42°18' W 083°12'0 0.0 180 / 51018.2 27.7 23.3
2014-Jul-22 14:00N 42°18' W 083°12'0 0.0 190 / 51019.2 26.2 23.1
2014-Jul-22 13:00N 42°18' W 083°12'9 4.4 280 / 61020.3 24.3 22.9
2014-Jul-22 11:00N 42°18' W 083°00'1110.7 200 / 41019.6 20.8 20.1
2014-Jul-22 10:00N 42°24' W 082°48'1110.7 160 / 51019.6 21.6 18.9
2014-Jul-22 09:00N 42°30' W 082°36'37 9.3 150 / 21019.6 18.4 17.6
2014-Jul-22 05:00N 43°06' W 082°24'1818.0 190 / 81019.110.8 21.9 17.5
2014-Jul-22 04:00N 43°24' W 082°24'1212.0 150 / 101019.1 21.7 17.4
2014-Jul-22 03:00N 43°36' W 082°24'1312.8 160 / 131018.8 21.6 16.9
2014-Jul-22 02:00N 43°48' W 082°30'   170 / 121018.8 21.3 16.8

Dump ship's entire track history